Time;durP1;ratioP1;P1;durP2;ratioP2;P2;SDS_P1;SDS_P2;PMS_P1;PMS_P2;Temp;Humidity;BMP_temperature;BMP_pressure;BME280_temperature;BME280_humidity;BME280_pressure;Samples;Min_cycle;Max_cycle;Signal;HPM_P1;HPM_P2
2021/01/07 00:00:57;;;;;;;52.10;34.17;;;-0.90;99.90;;;;;;5070803;28;20213;-74
2021/01/07 00:03:24;;;;;;;44.97;32.47;;;-0.90;99.90;;;;;;5070979;28;20206;-73
2021/01/07 00:05:51;;;;;;;51.13;35.47;;;-0.90;99.90;;;;;;5070674;28;20214;-74
2021/01/07 00:08:18;;;;;;;51.27;36.57;;;-1.00;99.90;;;;;;5070596;28;20217;-74
2021/01/07 00:10:44;;;;;;;51.20;35.13;;;-1.00;99.90;;;;;;5071243;28;20225;-76
2021/01/07 00:13:11;;;;;;;52.77;33.73;;;-1.00;99.90;;;;;;5071118;28;20673;-75
2021/01/07 00:15:37;;;;;;;45.43;32.57;;;-1.00;99.90;;;;;;5070595;28;20220;-76
2021/01/07 00:18:04;;;;;;;52.00;33.93;;;-1.00;99.90;;;;;;5070507;28;20217;-76
2021/01/07 00:20:31;;;;;;;44.57;29.73;;;-1.00;99.90;;;;;;5070431;28;20230;-76
2021/01/07 00:22:58;;;;;;;42.73;30.10;;;-1.10;99.90;;;;;;5070458;28;20735;-75
2021/01/07 00:25:25;;;;;;;44.40;31.20;;;-1.10;99.90;;;;;;5070566;28;20677;-75
2021/01/07 00:27:51;;;;;;;41.90;28.93;;;-1.10;99.90;;;;;;5070256;28;20213;-75
2021/01/07 00:30:19;;;;;;;40.30;29.00;;;-1.10;99.90;;;;;;5070643;28;20214;-75
2021/01/07 00:32:46;;;;;;;37.27;27.70;;;-1.00;99.90;;;;;;5070107;28;20209;-75
2021/01/07 00:35:12;;;;;;;34.70;25.03;;;-1.10;99.90;;;;;;5070743;28;20576;-75
2021/01/07 00:37:38;;;;;;;36.47;25.30;;;-1.10;99.90;;;;;;5070443;28;20210;-74
2021/01/07 00:40:07;;;;;;;32.80;24.10;;;-1.10;99.90;;;;;;5070187;28;21095;-75
2021/01/07 00:42:33;;;;;;;33.33;24.90;;;-1.20;99.90;;;;;;5070273;28;20217;-76
2021/01/07 00:45:00;;;;;;;44.00;26.67;;;-1.30;99.90;;;;;;5070225;28;20206;-74
2021/01/07 00:47:26;;;;;;;36.53;24.97;;;-1.30;99.90;;;;;;5070083;28;20693;-74
2021/01/07 00:49:53;;;;;;;38.03;23.60;;;-1.20;99.90;;;;;;5069740;28;20218;-74
2021/01/07 00:52:19;;;;;;;33.13;23.57;;;-1.20;99.90;;;;;;5070678;28;20236;-75
2021/01/07 00:54:45;;;;;;;39.60;24.83;;;-1.20;99.90;;;;;;5070069;28;20210;-71
2021/01/07 00:57:13;;;;;;;29.87;22.80;;;-1.30;99.90;;;;;;5070862;28;20206;-76
2021/01/07 00:59:39;;;;;;;36.63;23.17;;;-1.30;99.90;;;;;;5070752;28;20260;-74
2021/01/07 01:02:06;;;;;;;33.00;22.10;;;-1.50;99.90;;;;;;5069549;28;20713;-74
2021/01/07 01:04:32;;;;;;;30.40;21.97;;;-1.40;99.90;;;;;;5070575;28;20202;-74
2021/01/07 01:06:58;;;;;;;34.40;22.40;;;-1.40;99.90;;;;;;5069885;28;20201;-74
2021/01/07 01:09:25;;;;;;;34.40;23.27;;;-1.40;99.90;;;;;;5070371;28;20216;-74
2021/01/07 01:11:51;;;;;;;32.93;22.23;;;-1.30;99.90;;;;;;5069608;28;20281;-76
2021/01/07 01:14:20;;;;;;;33.73;22.73;;;-1.40;99.90;;;;;;5070072;28;20206;-76
2021/01/07 01:16:47;;;;;;;41.03;22.43;;;-1.40;99.90;;;;;;5069482;28;20266;-74
2021/01/07 01:19:14;;;;;;;33.33;22.57;;;-1.40;99.90;;;;;;5070106;28;20740;-74
2021/01/07 01:21:41;;;;;;;38.57;23.87;;;-1.40;99.90;;;;;;5070651;28;20210;-76
2021/01/07 01:24:08;;;;;;;34.80;23.07;;;-1.30;99.90;;;;;;5069709;28;20229;-76
2021/01/07 01:26:35;;;;;;;29.70;22.33;;;-1.30;99.90;;;;;;5069783;28;20629;-76
2021/01/07 01:29:01;;;;;;;42.00;23.20;;;-1.40;99.90;;;;;;5069389;28;20678;-76
2021/01/07 01:31:28;;;;;;;35.77;22.67;;;-1.30;99.90;;;;;;5070504;28;20210;-75
2021/01/07 01:33:55;;;;;;;31.50;22.80;;;-1.30;99.90;;;;;;5073320;28;20675;-75
2021/01/07 01:36:26;;;;;;;35.53;24.73;;;-1.20;99.90;;;;;;5074122;28;20201;-75
2021/01/07 01:38:52;;;;;;;30.50;22.20;;;-1.30;99.90;;;;;;5073475;28;20234;-74
2021/01/07 01:41:19;;;;;;;41.43;25.80;;;-1.40;99.90;;;;;;5073777;28;20201;-74
2021/01/07 01:43:45;;;;;;;40.87;24.90;;;-1.40;99.90;;;;;;5073603;28;20209;-74
2021/01/07 01:46:12;;;;;;;35.80;23.40;;;-1.40;99.90;;;;;;5074046;28;20202;-76
2021/01/07 01:48:41;;;;;;;39.77;28.37;;;-1.40;99.90;;;;;;5073982;28;20210;-76
2021/01/07 01:51:08;;;;;;;34.97;23.53;;;-1.50;99.90;;;;;;5073273;28;20677;-75
2021/01/07 01:53:35;;;;;;;38.43;25.17;;;-1.50;99.90;;;;;;5073501;28;20218;-76
2021/01/07 01:56:02;;;;;;;32.17;20.90;;;-1.40;99.90;;;;;;5072874;28;20213;-76
2021/01/07 01:58:30;;;;;;;33.30;20.83;;;-1.50;99.90;;;;;;5073102;28;20673;-73
2021/01/07 02:00:57;;;;;;;26.80;19.60;;;-1.70;99.90;;;;;;5073200;28;20236;-74
2021/01/07 02:03:23;;;;;;;29.13;20.63;;;-1.70;99.90;;;;;;5073424;28;20202;-75
2021/01/07 02:05:51;;;;;;;28.17;19.03;;;-1.70;99.90;;;;;;5073103;28;20205;-75
2021/01/07 02:08:19;;;;;;;27.90;19.70;;;-1.70;99.90;;;;;;5073038;28;20210;-75
2021/01/07 02:10:47;;;;;;;27.67;20.63;;;-1.70;99.90;;;;;;5072762;28;20220;-75
2021/01/07 02:13:14;;;;;;;29.93;20.90;;;-1.70;99.90;;;;;;5073626;28;20213;-75
2021/01/07 02:15:42;;;;;;;29.77;20.63;;;-1.70;99.90;;;;;;5073170;28;20252;-75
2021/01/07 02:18:08;;;;;;;26.70;19.77;;;-1.70;99.90;;;;;;5072743;28;20665;-74
2021/01/07 02:20:38;;;;;;;32.30;21.57;;;-1.70;99.90;;;;;;5072901;28;20226;-75
2021/01/07 02:23:04;;;;;;;27.67;20.30;;;-1.70;99.90;;;;;;5072811;28;20416;-75
2021/01/07 02:25:31;;;;;;;25.87;18.23;;;-1.70;99.90;;;;;;5072722;28;20213;-74
2021/01/07 02:27:57;;;;;;;32.40;21.07;;;-1.80;99.90;;;;;;5072871;28;20209;-75
2021/01/07 02:30:24;;;;;;;28.33;18.67;;;-1.80;99.90;;;;;;5072951;28;20209;-74
2021/01/07 02:32:52;;;;;;;25.80;18.73;;;-1.80;99.90;;;;;;5072638;28;20205;-72
2021/01/07 02:35:18;;;;;;;28.23;19.17;;;-1.80;99.90;;;;;;5072776;28;20241;-75
2021/01/07 02:37:46;;;;;;;28.03;19.13;;;-1.80;99.90;;;;;;5072376;28;20291;-73
2021/01/07 02:40:14;;;;;;;31.10;20.10;;;-1.90;99.90;;;;;;5073009;28;20232;-72
2021/01/07 02:42:40;;;;;;;27.10;20.50;;;-2.00;99.90;;;;;;5072050;28;20216;-73
2021/01/07 02:45:08;;;;;;;26.17;18.43;;;-1.90;99.90;;;;;;5071877;28;20206;-72
2021/01/07 02:47:35;;;;;;;27.27;18.97;;;-2.00;99.90;;;;;;5072265;28;20213;-72
2021/01/07 02:50:02;;;;;;;29.33;19.67;;;-2.10;99.90;;;;;;5072210;28;20216;-72
2021/01/07 02:52:29;;;;;;;26.93;20.13;;;-2.00;99.90;;;;;;5072241;28;20220;-72
2021/01/07 02:54:56;;;;;;;30.17;21.60;;;-2.00;99.90;;;;;;5072057;28;20212;-73
2021/01/07 02:57:23;;;;;;;32.77;20.73;;;-2.00;99.90;;;;;;5072497;28;20199;-73
2021/01/07 02:59:49;;;;;;;29.87;21.33;;;-2.00;99.90;;;;;;5071950;28;20258;-73
2021/01/07 03:02:15;;;;;;;31.87;21.97;;;-1.90;99.90;;;;;;5072438;28;20204;-72
2021/01/07 03:04:42;;;;;;;30.70;20.87;;;-2.00;99.90;;;;;;5072927;28;20218;-72
2021/01/07 03:07:09;;;;;;;29.17;20.97;;;-2.00;99.90;;;;;;5071524;28;20205;-72
2021/01/07 03:09:35;;;;;;;28.60;19.53;;;-2.00;99.90;;;;;;5072050;28;20208;-72
2021/01/07 03:12:11;;;;;;;31.90;21.10;;;-2.00;99.90;;;;;;5071741;28;20264;-72
2021/01/07 03:14:38;;;;;;;32.10;21.80;;;-1.90;99.90;;;;;;5072165;28;20213;-72
2021/01/07 03:17:04;;;;;;;27.40;22.30;;;-1.90;99.90;;;;;;5071462;28;20310;-72
2021/01/07 03:19:31;;;;;;;30.30;20.40;;;-1.90;99.90;;;;;;5071795;28;20228;-72
2021/01/07 03:21:57;;;;;;;26.87;19.30;;;-1.90;99.90;;;;;;5071266;28;20240;-72
2021/01/07 03:24:24;;;;;;;30.53;20.33;;;-1.90;99.90;;;;;;5071917;28;20216;-72
2021/01/07 03:26:50;;;;;;;27.80;19.43;;;-1.90;99.90;;;;;;5071535;28;20209;-73
2021/01/07 03:29:17;;;;;;;29.43;21.13;;;-1.90;99.90;;;;;;5071415;28;20208;-72
2021/01/07 03:31:44;;;;;;;28.00;20.13;;;-2.00;99.90;;;;;;5071782;28;20212;-72
2021/01/07 03:34:10;;;;;;;23.27;18.33;;;-2.00;99.90;;;;;;5071476;28;20208;-73
2021/01/07 03:36:37;;;;;;;26.60;19.37;;;-2.00;99.90;;;;;;5071690;28;20213;-73
2021/01/07 03:39:03;;;;;;;26.87;19.17;;;-2.00;99.90;;;;;;5071074;28;20209;-72
2021/01/07 03:41:30;;;;;;;28.00;19.80;;;-2.00;99.90;;;;;;5068236;28;20213;-72
2021/01/07 03:43:56;;;;;;;29.30;20.00;;;-2.00;99.90;;;;;;5066794;28;20205;-72
2021/01/07 03:46:24;;;;;;;23.17;17.27;;;-2.10;99.90;;;;;;5071276;28;20216;-72
2021/01/07 03:48:50;;;;;;;28.73;19.00;;;-2.10;99.90;;;;;;5070935;28;20596;-71
2021/01/07 03:51:16;;;;;;;28.47;19.53;;;-2.00;99.90;;;;;;5070879;28;20206;-71
2021/01/07 03:53:43;;;;;;;28.83;19.50;;;-2.10;99.90;;;;;;5071620;28;20208;-71
2021/01/07 03:56:09;;;;;;;33.77;21.13;;;-2.20;99.90;;;;;;5070965;28;20234;-73
2021/01/07 03:58:36;;;;;;;30.23;20.63;;;-2.20;99.90;;;;;;5071263;28;20240;-69
2021/01/07 04:01:03;;;;;;;28.87;19.60;;;-2.10;99.90;;;;;;5070229;28;20231;-72
2021/01/07 04:03:30;;;;;;;30.20;21.23;;;-2.00;99.90;;;;;;5071144;28;20209;-72
2021/01/07 04:05:56;;;;;;;29.70;19.33;;;-2.10;99.90;;;;;;5070208;28;20212;-72
2021/01/07 04:08:23;;;;;;;24.40;17.93;;;-2.10;99.90;;;;;;5070971;28;20208;-73
2021/01/07 04:10:49;;;;;;;22.73;18.20;;;-2.00;99.90;;;;;;5070300;28;20662;-73
2021/01/07 04:13:16;;;;;;;26.30;18.90;;;-2.00;99.90;;;;;;5070803;28;20678;-73
2021/01/07 04:15:42;;;;;;;24.93;17.93;;;-1.90;99.90;;;;;;5071006;28;20568;-73
2021/01/07 04:18:09;;;;;;;31.50;20.20;;;-2.00;99.90;;;;;;5070450;28;20210;-73
2021/01/07 04:20:36;;;;;;;28.93;19.50;;;-2.00;99.90;;;;;;5070463;28;20838;-73
2021/01/07 04:23:03;;;;;;;24.80;19.47;;;-2.00;99.90;;;;;;5070423;28;20212;-73
2021/01/07 04:25:29;;;;;;;24.80;18.97;;;-2.10;99.90;;;;;;5071080;28;20213;-73
2021/01/07 04:27:56;;;;;;;22.53;17.33;;;-2.10;99.90;;;;;;5070342;28;20628;-73
2021/01/07 04:30:22;;;;;;;26.03;17.50;;;-2.10;99.90;;;;;;5070830;28;20262;-73
2021/01/07 04:32:49;;;;;;;27.10;16.90;;;-2.20;99.90;;;;;;5070362;28;20204;-73
2021/01/07 04:35:15;;;;;;;28.10;18.63;;;-2.10;99.90;;;;;;5070333;28;20201;-74
2021/01/07 04:37:43;;;;;;;25.87;15.83;;;-2.10;99.90;;;;;;5071198;28;20216;-73
2021/01/07 04:40:10;;;;;;;23.43;17.27;;;-2.10;99.90;;;;;;5070119;28;20271;-72
2021/01/07 04:42:36;;;;;;;23.10;16.17;;;-2.10;99.90;;;;;;5070531;28;20687;-73
2021/01/07 04:45:04;;;;;;;26.77;18.23;;;-2.30;99.90;;;;;;5069706;28;20286;-72
2021/01/07 04:47:30;;;;;;;27.47;19.23;;;-2.30;99.90;;;;;;5070848;28;20254;-72
2021/01/07 04:49:58;;;;;;;24.93;18.27;;;-2.40;99.90;;;;;;5069636;28;20701;-71
2021/01/07 04:52:25;;;;;;;23.50;17.63;;;-2.40;99.90;;;;;;5070199;28;20369;-70
2021/01/07 04:54:52;;;;;;;25.47;16.73;;;-2.40;99.90;;;;;;5069963;28;20210;-71
2021/01/07 04:57:19;;;;;;;29.60;18.10;;;-2.40;99.90;;;;;;5069976;28;20578;-71
2021/01/07 04:59:46;;;;;;;24.93;17.60;;;-2.30;99.90;;;;;;5069698;28;20231;-71
2021/01/07 05:02:14;;;;;;;24.90;17.33;;;-2.30;99.90;;;;;;5070388;28;20263;-72
2021/01/07 05:04:49;;;;;;;28.07;18.70;;;-2.30;99.90;;;;;;5070470;28;20559;-72
2021/01/07 05:07:19;;;;;;;25.60;17.07;;;-2.30;99.90;;;;;;5071969;28;20205;-70
2021/01/07 05:09:46;;;;;;;24.23;18.30;;;-2.30;99.90;;;;;;5074109;28;20208;-72
2021/01/07 05:12:14;;;;;;;24.30;17.60;;;-2.30;99.90;;;;;;5074347;28;20205;-72
2021/01/07 05:14:45;;;;;;;27.57;17.67;;;-2.40;99.90;;;;;;5074989;28;20205;-71
2021/01/07 05:17:12;;;;;;;26.03;17.43;;;-2.40;99.90;;;;;;5074644;28;20218;-72
2021/01/07 05:19:39;;;;;;;27.03;17.27;;;-2.40;99.90;;;;;;5074462;28;20298;-73
2021/01/07 05:22:06;;;;;;;28.30;19.10;;;-2.40;99.90;;;;;;5073850;28;20213;-72
2021/01/07 05:24:33;;;;;;;22.57;16.50;;;-2.40;99.90;;;;;;5074222;28;20204;-72
2021/01/07 05:27:05;;;;;;;32.63;21.50;;;-2.40;99.90;;;;;;5074321;28;20212;-72
2021/01/07 05:29:33;;;;;;;30.23;19.90;;;-2.40;99.90;;;;;;5073746;28;20212;-72
2021/01/07 05:31:59;;;;;;;29.50;19.73;;;-2.40;99.90;;;;;;5073525;28;20219;-72
2021/01/07 05:34:26;;;;;;;25.50;18.33;;;-2.40;99.90;;;;;;5073664;28;20683;-72
2021/01/07 05:36:57;;;;;;;27.87;18.17;;;-2.50;99.90;;;;;;5073702;28;20231;-73
2021/01/07 05:39:24;;;;;;;25.70;18.33;;;-2.40;99.90;;;;;;5073547;28;20226;-71
2021/01/07 05:41:54;;;;;;;23.77;16.67;;;-2.50;99.90;;;;;;5073728;28;20215;-72
2021/01/07 05:44:23;;;;;;;27.60;19.77;;;-2.40;99.90;;;;;;5073825;28;20204;-71
2021/01/07 05:46:50;;;;;;;28.90;21.70;;;-2.40;99.90;;;;;;5072770;28;20320;-73
2021/01/07 05:49:20;;;;;;;25.43;19.50;;;-2.40;99.90;;;;;;5073641;28;20212;-73
2021/01/07 05:51:47;;;;;;;31.23;22.67;;;-2.40;99.90;;;;;;5072701;28;20303;-72
2021/01/07 05:54:14;;;;;;;30.00;21.93;;;-2.50;99.90;;;;;;5073819;28;20287;-72
2021/01/07 05:56:45;;;;;;;32.87;21.63;;;-2.50;99.90;;;;;;5071730;28;20295;-72
2021/01/07 05:59:14;;;;;;;24.60;20.07;;;-2.50;99.90;;;;;;5072953;28;20843;-72
2021/01/07 06:01:44;;;;;;;26.47;19.90;;;-2.40;99.90;;;;;;5072795;28;20217;-73
2021/01/07 06:04:12;;;;;;;26.63;22.10;;;-2.40;99.90;;;;;;5073489;28;20283;-74
2021/01/07 06:06:40;;;;;;;24.80;18.40;;;-2.40;99.90;;;;;;5073060;28;20590;-73
2021/01/07 06:09:07;;;;;;;25.90;19.40;;;-2.60;99.90;;;;;;5073001;28;20699;-72
2021/01/07 06:11:35;;;;;;;29.40;20.03;;;-2.60;99.90;;;;;;5072991;28;20591;-73
2021/01/07 06:14:03;;;;;;;23.53;17.87;;;-2.50;99.90;;;;;;5071549;28;20263;-72
2021/01/07 06:16:30;;;;;;;25.43;19.37;;;-2.50;99.90;;;;;;5072845;28;20218;-72
2021/01/07 06:19:30;;;;;;;25.03;17.93;;;-2.50;99.90;;;;;;5072168;28;20683;-73
2021/01/07 06:21:59;;;;;;;28.50;17.80;;;-2.50;99.90;;;;;;5063425;28;20214;-72
2021/01/07 06:24:26;;;;;;;25.83;18.20;;;-2.50;99.90;;;;;;5072465;28;20208;-72
2021/01/07 06:26:53;;;;;;;27.87;19.13;;;-2.50;99.90;;;;;;5072572;28;20205;-73
2021/01/07 06:29:19;;;;;;;26.40;17.27;;;-2.40;99.90;;;;;;5072330;28;20244;-72
2021/01/07 06:31:55;;;;;;;27.60;21.03;;;-2.50;99.90;;;;;;5060507;28;20213;-73
2021/01/07 06:34:26;;;;;;;30.07;21.27;;;-2.60;99.90;;;;;;5072652;28;20209;-73
2021/01/07 06:36:55;;;;;;;33.60;20.77;;;-2.60;99.90;;;;;;5072602;28;20204;-73
2021/01/07 06:39:22;;;;;;;29.90;22.73;;;-2.60;99.90;;;;;;5072458;28;20582;-73
2021/01/07 06:41:57;;;;;;;39.63;20.90;;;-2.60;99.90;;;;;;5072208;28;20218;-73
2021/01/07 06:44:25;;;;;;;30.07;19.63;;;-2.70;99.90;;;;;;5072392;28;20219;-73
2021/01/07 06:46:52;;;;;;;33.87;21.67;;;-2.50;99.90;;;;;;5071029;28;20673;-73
2021/01/07 06:49:20;;;;;;;34.73;21.83;;;-2.60;99.90;;;;;;5072502;28;20217;-74
2021/01/07 06:51:52;;;;;;;37.57;25.80;;;-2.60;99.90;;;;;;5071696;28;20244;-73
2021/01/07 06:54:19;;;;;;;35.73;26.53;;;-2.60;99.90;;;;;;5072491;28;20641;-74
2021/01/07 06:56:52;;;;;;;35.23;24.70;;;-2.50;99.90;;;;;;5071647;28;20205;-73
2021/01/07 06:59:20;;;;;;;41.63;25.23;;;-2.60;99.90;;;;;;5072185;28;20401;-73
2021/01/07 07:01:49;;;;;;;41.37;28.07;;;-2.70;99.90;;;;;;5072151;28;20220;-74
2021/01/07 07:04:27;;;;;;;42.20;30.43;;;-2.70;99.90;;;;;;5066494;28;20216;-74
2021/01/07 07:07:01;;;;;;;37.73;28.03;;;-2.70;99.90;;;;;;5066771;28;20208;-75
2021/01/07 07:09:38;;;;;;;33.77;21.13;;;-2.60;99.90;;;;;;5071998;28;20209;-75
2021/01/07 07:12:06;;;;;;;33.20;22.00;;;-2.80;99.90;;;;;;5071986;28;20207;-73
2021/01/07 07:14:33;;;;;;;37.07;24.00;;;-2.80;99.90;;;;;;5066513;28;20204;-73
2021/01/07 07:17:06;;;;;;;27.43;17.00;;;-2.70;99.90;;;;;;5066925;28;20599;-73
2021/01/07 07:19:36;;;;;;;27.03;16.43;;;-2.70;99.90;;;;;;5070935;28;20236;-74
2021/01/07 07:22:03;;;;;;;27.87;18.27;;;-2.20;99.90;;;;;;5071377;28;20682;-74
2021/01/07 07:24:35;;;;;;;27.57;18.07;;;-2.30;99.90;;;;;;5071979;28;20214;-74
2021/01/07 07:27:12;;;;;;;24.97;17.93;;;-2.30;99.90;;;;;;5071170;28;20734;-75
2021/01/07 07:29:43;;;;;;;26.93;18.60;;;-2.40;99.90;;;;;;5071022;28;20208;-74
2021/01/07 07:32:26;;;;;;;25.67;17.17;;;-2.40;99.90;;;;;;5071501;28;20199;-74
2021/01/07 07:34:55;;;;;;;23.77;16.57;;;-2.60;99.90;;;;;;5071409;28;20368;-73
2021/01/07 07:37:23;;;;;;;28.53;17.77;;;-2.80;99.90;;;;;;5071513;28;20203;-73
2021/01/07 07:39:59;;;;;;;27.20;18.17;;;-2.80;99.90;;;;;;5070844;28;20771;-73
2021/01/07 07:42:28;;;;;;;30.23;19.53;;;-2.80;99.90;;;;;;5069918;28;20266;-73
2021/01/07 07:44:54;;;;;;;24.80;17.43;;;-2.60;99.90;;;;;;5069991;28;20215;-73
2021/01/07 07:47:22;;;;;;;30.83;18.97;;;-2.60;99.90;;;;;;5071334;28;20659;-73
2021/01/07 07:49:55;;;;;;;32.43;18.83;;;-2.50;99.90;;;;;;5069661;28;20256;-73
2021/01/07 07:52:22;;;;;;;27.50;18.23;;;-2.50;99.90;;;;;;5070604;28;20208;-73
2021/01/07 07:55:00;;;;;;;25.00;18.57;;;-2.50;99.90;;;;;;5070869;28;20207;-73
2021/01/07 07:57:26;;;;;;;29.13;22.00;;;-2.50;99.90;;;;;;5069272;28;20600;-73
2021/01/07 07:59:53;;;;;;;55.03;37.03;;;-2.50;99.90;;;;;;5070686;28;20236;-74
2021/01/07 08:02:20;;;;;;;98.00;68.33;;;-2.70;99.90;;;;;;5070688;28;20209;-73
2021/01/07 08:04:46;;;;;;;37.03;24.70;;;-2.80;99.90;;;;;;5070530;28;20217;-71
2021/01/07 08:07:13;;;;;;;34.13;22.17;;;-2.80;99.90;;;;;;5070586;28;20223;-74
2021/01/07 08:09:40;;;;;;;51.23;36.93;;;-2.80;99.90;;;;;;5070676;28;20215;-75
2021/01/07 08:12:08;;;;;;;39.13;27.20;;;-2.70;99.90;;;;;;5071063;28;20214;-74
2021/01/07 08:14:39;;;;;;;28.77;22.33;;;-2.60;99.90;;;;;;5058722;28;20633;-79
2021/01/07 08:17:06;;;;;;;31.13;21.87;;;-2.60;99.90;;;;;;5070807;28;20269;-80
2021/01/07 08:19:33;;;;;;;32.20;22.67;;;-2.60;99.90;;;;;;5070582;28;20206;-77
2021/01/07 08:22:01;;;;;;;42.17;31.17;;;-2.50;99.90;;;;;;5068641;28;20208;-77
2021/01/07 08:24:27;;;;;;;35.33;26.00;;;-2.30;99.90;;;;;;5064862;28;20710;-75
2021/01/07 08:27:15;;;;;;;34.40;25.83;;;-2.10;99.90;;;;;;5065674;28;20219;-72
2021/01/07 08:29:46;;;;;;;32.27;21.87;;;-1.90;99.90;;;;;;5065742;28;20620;-74
2021/01/07 08:32:17;;;;;;;30.37;20.50;;;-1.50;99.90;;;;;;5068619;28;20207;-74
2021/01/07 08:34:45;;;;;;;30.27;19.33;;;-0.70;99.90;;;;;;5070371;28;20209;-75
2021/01/07 08:37:13;;;;;;;25.47;18.43;;;-1.00;99.90;;;;;;5070671;28;20209;-74
2021/01/07 08:39:41;;;;;;;31.27;19.77;;;-1.00;99.90;;;;;;5068092;28;20228;-73
2021/01/07 08:42:09;;;;;;;28.90;20.40;;;-0.80;99.90;;;;;;5070406;28;20239;-75
2021/01/07 08:44:37;;;;;;;35.03;20.17;;;-1.00;99.90;;;;;;5069735;28;20674;-75
2021/01/07 08:47:04;;;;;;;33.10;21.63;;;-0.80;99.90;;;;;;5067342;28;20688;-73
2021/01/07 08:49:31;;;;;;;27.20;19.13;;;0.10;99.90;;;;;;5068611;28;20231;-74
2021/01/07 08:52:00;;;;;;;28.97;19.67;;;0.90;99.90;;;;;;5057893;28;20699;-77
2021/01/07 08:54:27;;;;;;;31.60;18.90;;;0.70;99.90;;;;;;5070158;28;20202;-77
2021/01/07 08:56:55;;;;;;;29.20;20.00;;;1.00;99.90;;;;;;5068233;28;20212;-78
2021/01/07 08:59:32;;;;;;;26.40;17.67;;;1.00;99.90;;;;;;5069152;28;20596;-77
2021/01/07 09:02:00;;;;;;;24.50;16.50;;;0.80;99.90;;;;;;5069028;28;20241;-78
2021/01/07 09:04:34;;;;;;;27.30;17.63;;;0.10;99.90;;;;;;5070183;28;20213;-77
2021/01/07 09:07:03;;;;;;;26.90;18.40;;;0.30;99.90;;;;;;5069822;28;20202;-77
2021/01/07 09:09:39;;;;;;;33.47;18.77;;;0.60;99.90;;;;;;5064731;28;20272;-77
2021/01/07 09:12:15;;;;;;;30.70;20.13;;;0.30;99.90;;;;;;5069956;28;20255;-77
2021/01/07 09:14:50;;;;;;;27.57;18.17;;;0.40;99.90;;;;;;5069949;28;20201;-77
2021/01/07 09:17:17;;;;;;;27.57;19.10;;;0.70;99.90;;;;;;5064147;28;20209;-76
2021/01/07 09:19:45;;;;;;;28.50;18.43;;;0.80;99.90;;;;;;5069775;28;20268;-76
2021/01/07 09:22:20;;;;;;;27.13;17.77;;;1.40;99.90;;;;;;5069659;28;20201;-75
2021/01/07 09:24:47;;;;;;;29.33;18.83;;;2.20;99.90;;;;;;5069977;28;20202;-76
2021/01/07 09:27:15;;;;;;;31.47;19.67;;;2.40;99.90;;;;;;5064622;28;20261;-76
2021/01/07 09:29:42;;;;;;;24.67;17.33;;;2.40;99.90;;;;;;5059269;28;20713;-76
2021/01/07 09:32:11;;;;;;;22.77;17.23;;;3.20;99.90;;;;;;5066143;28;20209;-76
2021/01/07 09:34:38;;;;;;;25.60;17.33;;;3.10;99.90;;;;;;5069751;28;20538;-76
2021/01/07 09:37:06;;;;;;;25.97;17.87;;;1.90;99.90;;;;;;5069027;28;20206;-75
2021/01/07 09:39:32;;;;;;;21.57;17.37;;;1.50;99.90;;;;;;5066767;28;20625;-76
2021/01/07 09:41:59;;;;;;;28.67;17.37;;;1.30;99.90;;;;;;5068740;28;20213;-76
2021/01/07 09:44:26;;;;;;;22.57;15.67;;;0.90;99.90;;;;;;5067162;28;20210;-76
2021/01/07 09:46:54;;;;;;;25.63;16.13;;;1.30;99.90;;;;;;5069419;28;20586;-76
2021/01/07 09:49:21;;;;;;;25.53;17.67;;;1.80;99.90;;;;;;5069491;28;20203;-75
2021/01/07 09:51:48;;;;;;;23.10;16.80;;;2.10;99.90;;;;;;5068811;28;20206;-76
2021/01/07 09:54:14;;;;;;;29.20;18.10;;;2.50;99.90;;;;;;5073576;28;20687;-75
2021/01/07 09:56:41;;;;;;;24.47;17.83;;;2.50;99.90;;;;;;5069413;28;20209;-76
2021/01/07 09:59:07;;;;;;;25.13;17.43;;;2.10;99.90;;;;;;5072622;28;20204;-76
2021/01/07 10:01:34;;;;;;;28.07;16.10;;;1.80;99.90;;;;;;5073310;28;20238;-76
2021/01/07 10:04:00;;;;;;;21.10;16.50;;;1.70;99.90;;;;;;5072856;28;20210;-76
2021/01/07 10:06:28;;;;;;;25.33;15.80;;;1.90;99.90;;;;;;5073319;28;20216;-76
2021/01/07 10:08:54;;;;;;;22.50;15.10;;;3.90;99.90;;;;;;5072299;28;20202;-76
2021/01/07 10:11:21;;;;;;;26.80;14.27;;;4.30;99.90;;;;;;5073225;28;20202;-76
2021/01/07 10:13:47;;;;;;;26.50;16.53;;;5.20;99.90;;;;;;5073216;28;20202;-76
2021/01/07 10:16:14;;;;;;;19.97;14.27;;;5.90;99.90;;;;;;5073079;28;20301;-73
2021/01/07 10:18:41;;;;;;;17.93;13.80;;;6.90;99.90;;;;;;5069998;28;20203;-74
2021/01/07 10:21:10;;;;;;;22.93;16.00;;;7.10;99.90;;;;;;5072306;28;20721;-74
2021/01/07 10:23:41;;;;;;;25.40;15.47;;;8.20;99.90;;;;;;5065192;28;20207;-74
2021/01/07 10:26:09;;;;;;;21.43;15.97;;;9.00;99.90;;;;;;5072822;28;20202;-74
2021/01/07 10:28:36;;;;;;;22.23;13.87;;;8.40;99.90;;;;;;5072723;28;20210;-74
2021/01/07 10:31:03;;;;;;;20.73;14.37;;;8.30;99.90;;;;;;5072340;28;20202;-74
2021/01/07 10:33:31;;;;;;;24.50;14.50;;;8.30;99.90;;;;;;5072930;28;20210;-74
2021/01/07 10:35:58;;;;;;;21.77;15.17;;;8.70;99.90;;;;;;5066252;28;20571;-73
2021/01/07 10:38:25;;;;;;;22.73;16.07;;;9.20;99.90;;;;;;5064804;28;20244;-73
2021/01/07 10:40:53;;;;;;;23.77;16.27;;;9.70;99.90;;;;;;5072018;28;20712;-76
2021/01/07 10:43:23;;;;;;;18.63;14.10;;;9.40;99.90;;;;;;5068355;28;20202;-76
2021/01/07 10:45:51;;;;;;;20.63;15.50;;;8.70;99.90;;;;;;5072173;28;20225;-78
2021/01/07 10:48:21;;;;;;;20.23;15.07;;;7.00;99.90;;;;;;5067418;28;20202;-77
2021/01/07 10:50:48;;;;;;;18.27;14.50;;;7.10;99.90;;;;;;5066858;28;20637;-79
2021/01/07 10:54:00;;;;;;;20.47;15.53;;;7.10;99.90;;;;;;5065351;28;20710;-76
2021/01/07 10:56:51;;;;;;;24.60;16.60;;;4.70;99.90;;;;;;5070065;28;20202;-76
2021/01/07 10:59:31;;;;;;;27.93;16.80;;;3.50;99.90;;;;;;5054299;28;20209;-77
2021/01/07 11:02:14;;;;;;;24.97;16.57;;;3.20;99.90;;;;;;5065479;28;20629;-76
2021/01/07 11:05:02;;;;;;;19.90;15.63;;;2.90;99.90;;;;;;5063974;28;20206;-76
2021/01/07 11:07:33;;;;;;;23.43;16.20;;;2.90;99.90;;;;;;5071882;28;20611;-76
2021/01/07 11:10:04;;;;;;;21.77;15.20;;;3.00;99.90;;;;;;5069110;28;20662;-77
2021/01/07 11:12:38;;;;;;;23.67;16.90;;;2.90;99.90;;;;;;5068639;28;20241;-78
2021/01/07 11:15:11;;;;;;;23.23;17.17;;;2.90;99.90;;;;;;5071277;28;20193;-79
2021/01/07 11:17:41;;;;;;;28.63;16.33;;;2.70;99.90;;;;;;5071376;28;20209;-75
2021/01/07 11:20:09;;;;;;;25.00;18.23;;;2.70;99.90;;;;;;5061557;28;20229;-78
2021/01/07 11:22:38;;;;;;;25.20;17.70;;;2.90;99.90;;;;;;5071841;28;20206;-77
2021/01/07 11:25:06;;;;;;;29.37;17.07;;;3.00;99.90;;;;;;5059628;28;20209;-77
2021/01/07 11:27:35;;;;;;;24.83;17.27;;;2.90;99.90;;;;;;5066133;28;20304;-77
2021/01/07 11:30:05;;;;;;;27.30;19.37;;;2.60;99.90;;;;;;5063687;28;20213;-77
2021/01/07 11:32:35;;;;;;;35.43;17.93;;;2.30;99.90;;;;;;5068230;28;20739;-78
2021/01/07 11:35:06;;;;;;;21.60;15.10;;;2.50;99.90;;;;;;5066732;28;20209;-79
2021/01/07 11:37:47;;;;;;;33.47;19.43;;;2.70;99.90;;;;;;5071209;28;20255;-77
2021/01/07 11:40:19;;;;;;;26.43;17.77;;;2.90;99.90;;;;;;5067332;28;20253;-77
2021/01/07 11:43:37;;;;;;;23.80;16.23;;;3.10;99.90;;;;;;5067953;28;20674;-79
2021/01/07 11:46:04;;;;;;;25.17;16.53;;;3.00;99.90;;;;;;5064269;28;20215;-78
2021/01/07 11:48:34;;;;;;;26.60;17.87;;;2.60;99.90;;;;;;5065692;28;20218;-78
2021/01/07 11:51:04;;;;;;;21.93;15.70;;;2.80;99.90;;;;;;5070039;28;20216;-79
2021/01/07 11:53:31;;;;;;;26.83;18.03;;;2.90;99.90;;;;;;5071181;28;20669;-78
2021/01/07 11:55:58;;;;;;;24.67;17.07;;;2.80;99.90;;;;;;5070789;28;20666;-76
2021/01/07 11:58:29;;;;;;;45.97;23.73;;;2.60;99.90;;;;;;5071251;28;20235;-77
2021/01/07 12:00:56;;;;;;;22.47;15.33;;;2.80;99.90;;;;;;5070841;28;20634;-76
2021/01/07 12:03:33;;;;;;;27.33;18.47;;;2.80;99.90;;;;;;5062884;28;20206;-77
2021/01/07 12:06:01;;;;;;;30.73;17.30;;;3.30;99.90;;;;;;5070587;28;20678;-77
2021/01/07 12:08:44;;;;;;;24.57;18.17;;;3.40;99.90;;;;;;5071011;28;20206;-77
2021/01/07 12:11:18;;;;;;;23.67;16.37;;;3.20;99.90;;;;;;5071001;28;20205;-77
2021/01/07 12:13:53;;;;;;;21.23;16.60;;;3.30;99.90;;;;;;5069928;28;20705;-77
2021/01/07 12:16:25;;;;;;;28.10;16.50;;;3.40;99.90;;;;;;5070521;28;20212;-76
2021/01/07 12:18:52;;;;;;;23.27;15.50;;;3.30;99.90;;;;;;5070602;28;20202;-77
2021/01/07 12:21:20;;;;;;;28.53;19.50;;;3.20;99.90;;;;;;5070874;28;20226;-76
2021/01/07 12:23:47;;;;;;;27.40;17.30;;;3.30;99.90;;;;;;5070650;28;20206;-76
2021/01/07 12:26:14;;;;;;;20.53;15.20;;;3.60;99.90;;;;;;5069894;28;20202;-77
2021/01/07 12:28:43;;;;;;;24.80;16.70;;;3.60;99.90;;;;;;5068811;28;20206;-77
2021/01/07 12:31:16;;;;;;;22.80;15.73;;;3.40;99.90;;;;;;5069136;28;20691;-77
2021/01/07 12:33:58;;;;;;;23.63;16.30;;;3.20;99.90;;;;;;5066846;28;20209;-78
2021/01/07 12:36:37;;;;;;;22.50;14.40;;;3.30;99.90;;;;;;5070395;28;20209;-77
2021/01/07 12:39:07;;;;;;;23.03;16.00;;;3.50;99.90;;;;;;5070337;28;20204;-78